Akeley, Minnesota
Current Conditions -  °F | °C
As of 1:35 PM on Thursday 27 Nov 2014 (Local Time) from KY49 Reporting Station
Clear Clear  
Wind Chill:   Ceiling: Unl
Heat Index:   Visibility: 10mi
Dew Point: -7°   Wind: 3mph
Humidity: 57%   Direction: 160°SSE
Pressure: 30.36"   Gusts: NA
Location:  47°N, 94.73°W
Report Text: KY49 271935Z AUTO 16003KT 10SM CLR M15/M22 A3036 RMK AO2 T11481217
Loading
Personal Weather Stations






























Interactive Weather Map New forecast layout! Learn more

10-Day Weather Forecast

Advertisements
Track Severe Weather on mobile